Terminal Aerodrome Forecast
Issued by NWS Sioux Falls, SD

Home | Current Version | Previous Version | Text Only | Print | Product List | Glossary On
Versions: 1 2 3 4 5 6 7 8 9 10 11 12 13 14 15 16 17 18 19 20 21 22 23 24 25 26 27 28 29 30 31 32
000
FTUS43 KFSD 291458 AAB
TAFSUX
TAF AMD
KSUX 291458Z 2915/3012 21007KT P6SM SCT010 BKN080
     FM291900 27009KT P6SM SCT025 BKN080
      TEMPO 2920/2922 6SM TSRA OVC025CB
     FM292200 34015G24KT P6SM BKN020
     FM300000 36017G26KT P6SM OVC025
     FM300400 36013KT P6SM SCT030 BKN080
     FM301000 01011KT P6SM SCT100 BKN200=

USA.gov is the U.S. government's official web portal to all federal, state and local government web resources and services.